Smiley Heights, California
Current Conditions -  °F | °C
As of 1:45 PM on Friday 28 Nov 2014 (Local Time) from KSBD Reporting Station
Clear Clear  
Wind Chill: 82°   Ceiling: Unl
Heat Index: 82°   Visibility: 10mi
Dew Point: 21°   Wind: 9mph
Humidity: 10%   Direction: 270°W
Pressure: 29.93"   Gusts: NA
Location:  34.0057°N, 117.15°W
Report Text: KSBD 282145Z 27008KT 10SM SKC 28/M06 A2993
Loading
Personal Weather Stations






























Interactive Weather Map New forecast layout! Learn more

10-Day Weather Forecast

Advertisements
Track Severe Weather on mobile